createdAt,value
2023-05-12T00:00:38.282Z,15.22
2023-05-12T00:05:34.865Z,15.10
2023-05-12T00:10:31.385Z,15.15
2023-05-12T00:15:27.731Z,15.21
2023-05-12T00:20:24.410Z,15.23
2023-05-12T00:25:20.894Z,15.14
2023-05-12T00:30:17.470Z,15.26
2023-05-12T00:35:14.121Z,15.19
2023-05-12T00:40:13.858Z,15.20
2023-05-12T00:45:10.980Z,15.17
2023-05-12T00:50:08.591Z,15.27
2023-05-12T00:55:06.014Z,15.21
2023-05-12T01:00:02.700Z,15.20
2023-05-12T01:04:59.268Z,15.20
2023-05-12T01:09:56.461Z,15.21
2023-05-12T01:14:54.013Z,15.25
2023-05-12T01:19:52.587Z,15.29
2023-05-12T01:24:52.443Z,15.32
2023-05-12T01:29:49.813Z,15.22
2023-05-12T01:34:46.652Z,15.31
2023-05-12T01:39:43.158Z,15.30
2023-05-12T01:44:39.885Z,15.31
2023-05-12T01:49:36.532Z,15.28
2023-05-12T01:54:33.050Z,15.26
2023-05-12T01:59:29.572Z,15.33
2023-05-12T02:04:27.121Z,15.31
2023-05-12T02:09:23.703Z,15.25
2023-05-12T02:14:21.649Z,15.25
2023-05-12T02:19:21.487Z,15.32
2023-05-12T02:24:17.986Z,15.30
2023-05-12T02:29:14.497Z,15.38
2023-05-12T02:34:10.996Z,15.32
2023-05-12T02:39:07.854Z,15.43
2023-05-12T02:44:04.441Z,15.42
2023-05-12T02:49:01.120Z,15.37
2023-05-12T02:53:57.692Z,15.38
2023-05-12T02:58:54.186Z,15.40
2023-05-12T03:03:50.641Z,15.48
2023-05-12T03:08:47.242Z,15.38
2023-05-12T03:13:44.796Z,15.39
2023-05-12T03:18:41.177Z,15.47
2023-05-12T03:23:40.770Z,15.38
2023-05-12T03:28:37.587Z,15.45
2023-05-12T03:33:34.278Z,15.40
2023-05-12T03:38:30.962Z,15.44
2023-05-12T03:43:27.432Z,15.47
2023-05-12T03:48:23.776Z,15.49
2023-05-12T03:53:20.592Z,15.49
2023-05-12T03:58:17.381Z,15.50
2023-05-12T04:03:13.898Z,15.51
2023-05-12T04:08:11.445Z,15.52
2023-05-12T04:13:10.868Z,15.53
2023-05-12T04:18:07.404Z,15.53
2023-05-12T04:23:03.845Z,15.54
2023-05-12T04:28:00.232Z,15.57
2023-05-12T04:32:57.183Z,15.42
2023-05-12T04:48:25.196Z,15.67
2023-05-12T04:53:21.462Z,15.72
2023-05-12T04:58:17.890Z,15.77
2023-05-12T05:03:14.323Z,15.82
2023-05-12T05:08:13.956Z,15.86
2023-05-12T05:13:10.434Z,15.88
2023-05-12T05:18:07.001Z,15.94
2023-05-12T05:23:03.499Z,15.94
2023-05-12T05:27:59.937Z,16.00
2023-05-12T05:32:56.364Z,16.04
2023-05-12T05:37:55.578Z,16.13
2023-05-12T05:42:52.129Z,16.20
2023-05-12T05:47:49.940Z,16.29
2023-05-12T05:52:46.471Z,16.41
2023-05-12T05:57:43.101Z,16.49
2023-05-12T06:02:39.894Z,16.63
2023-05-12T06:07:36.404Z,16.76
2023-05-12T06:12:32.916Z,16.91
2023-05-12T06:17:31.933Z,17.06
2023-05-12T06:22:32.003Z,17.23
2023-05-12T06:27:28.468Z,17.34
2023-05-12T06:32:24.956Z,17.46
2023-05-12T06:37:21.504Z,17.62
2023-05-12T06:42:19.153Z,17.76
2023-05-12T06:47:15.610Z,17.89
2023-05-12T06:52:14.398Z,18.06
2023-05-12T06:57:10.888Z,18.13
2023-05-12T07:02:07.463Z,18.29
2023-05-12T07:07:04.029Z,18.43
2023-05-12T07:12:00.662Z,18.61
2023-05-12T07:16:57.306Z,18.66
2023-05-12T07:21:53.970Z,18.74
2023-05-12T07:26:50.448Z,18.78
2023-05-12T07:31:47.066Z,18.90
2023-05-12T07:36:43.962Z,19.03
2023-05-12T07:41:40.902Z,19.15
2023-05-12T07:46:37.396Z,19.29
2023-05-12T07:51:33.851Z,19.42
2023-05-12T07:56:30.341Z,19.55
2023-05-12T08:01:26.800Z,19.67
2023-05-12T08:06:24.921Z,19.73
2023-05-12T08:11:21.857Z,19.85
2023-05-12T08:16:18.381Z,19.96
2023-05-12T08:21:17.414Z,20.02
2023-05-12T08:26:15.628Z,20.15
2023-05-12T08:31:12.452Z,20.18
2023-05-12T08:36:08.977Z,20.17
2023-05-12T08:41:25.463Z,20.14
2023-05-12T08:46:22.621Z,20.05
2023-05-12T08:51:19.496Z,20.12
2023-05-12T09:01:19.717Z,20.21
2023-05-12T09:06:16.881Z,20.28
2023-05-12T09:11:13.445Z,20.38
2023-05-12T09:16:12.638Z,20.48
2023-05-12T09:21:09.116Z,20.53
2023-05-12T09:26:05.555Z,20.57
2023-05-12T09:31:02.241Z,20.64
2023-05-12T09:36:00.052Z,20.70
2023-05-12T09:40:56.542Z,20.77
2023-05-12T09:45:53.047Z,20.87
2023-05-12T09:50:51.528Z,20.88
2023-05-12T09:55:48.522Z,20.89
2023-05-12T10:06:12.219Z,21.01
2023-05-12T10:11:09.248Z,21.00
2023-05-12T10:16:06.518Z,21.04
2023-05-12T10:21:03.262Z,21.16
2023-05-12T10:26:02.132Z,21.23
2023-05-12T10:30:59.213Z,21.33
2023-05-12T10:35:55.842Z,21.35
2023-05-12T10:40:59.119Z,21.46
2023-05-12T10:46:22.924Z,21.49
2023-05-12T10:51:21.982Z,21.49
2023-05-12T10:56:23.447Z,21.54
2023-05-12T11:01:25.122Z,21.57
2023-05-12T11:06:22.779Z,21.68
2023-05-12T11:11:22.441Z,21.78
2023-05-12T11:16:22.262Z,21.80
2023-05-12T11:21:18.808Z,21.83
2023-05-12T11:26:18.704Z,21.82
2023-05-12T11:31:21.925Z,21.87
2023-05-12T11:36:21.662Z,21.84
2023-05-12T11:41:26.696Z,21.92
2023-05-12T11:46:25.429Z,21.96
2023-05-12T11:51:22.219Z,22.07
2023-05-12T11:56:23.564Z,22.05
2023-05-12T12:01:21.025Z,22.00
2023-05-12T12:06:18.339Z,21.99
2023-05-12T12:11:18.344Z,22.09
2023-05-12T12:16:15.373Z,22.09
2023-05-12T12:21:26.386Z,21.93
2023-05-12T12:26:23.230Z,21.88
2023-05-12T12:31:19.921Z,21.83
2023-05-12T12:36:16.560Z,21.63
2023-05-12T12:41:14.021Z,21.67
2023-05-12T12:46:10.758Z,21.47
2023-05-12T12:51:07.470Z,21.52
2023-05-12T12:56:05.324Z,21.59
2023-05-12T13:01:02.352Z,21.55
2023-05-12T13:05:59.094Z,21.60
2023-05-12T13:10:55.963Z,21.60
2023-05-12T13:15:53.318Z,21.62
2023-05-12T13:20:54.293Z,21.68
2023-05-12T13:25:52.079Z,21.65
2023-05-12T13:30:48.897Z,21.75
2023-05-12T13:35:45.648Z,21.76
2023-05-12T13:40:44.659Z,21.77
2023-05-12T13:45:43.502Z,21.75
2023-05-12T13:50:40.182Z,21.66
2023-05-12T13:55:40.797Z,21.78
2023-05-12T14:00:39.325Z,21.80
2023-05-12T14:05:36.085Z,21.76
2023-05-12T14:10:32.915Z,21.72
2023-05-12T14:15:40.125Z,21.76
2023-05-12T14:20:47.193Z,21.77
2023-05-12T14:25:48.201Z,21.80
2023-05-12T14:30:45.372Z,21.74
2023-05-12T14:35:43.406Z,21.78
2023-05-12T14:40:43.562Z,21.68
2023-05-12T14:45:40.237Z,21.74
2023-05-12T14:50:37.965Z,21.76
2023-05-12T14:55:34.542Z,21.65
2023-05-12T15:00:31.480Z,21.57
2023-05-12T15:05:52.726Z,21.60
2023-05-12T15:10:47.892Z,21.66
2023-05-12T15:15:44.584Z,21.59
2023-05-12T15:20:43.565Z,21.61
2023-05-12T15:25:43.453Z,21.60
2023-05-12T15:30:42.962Z,21.57
2023-05-12T15:35:39.596Z,21.50
2023-05-12T15:40:45.201Z,21.53
2023-05-12T15:45:41.939Z,21.37
2023-05-12T15:50:38.714Z,21.33
2023-05-12T15:55:35.466Z,21.31
2023-05-12T16:00:32.104Z,21.26
2023-05-12T16:05:31.566Z,21.39
2023-05-12T16:10:28.241Z,21.32
2023-05-12T16:15:24.998Z,21.33
2023-05-12T16:20:21.897Z,21.28
2023-05-12T16:25:18.770Z,21.23
2023-05-12T16:30:20.089Z,21.08
2023-05-12T16:35:17.673Z,20.99
2023-05-12T16:40:15.142Z,21.05
2023-05-12T16:45:12.035Z,21.00
2023-05-12T16:50:09.474Z,20.93
2023-05-12T16:55:06.875Z,20.85
2023-05-12T17:00:09.740Z,20.89
2023-05-12T17:05:08.716Z,20.69
2023-05-12T17:10:05.626Z,20.63
2023-05-12T17:15:07.615Z,20.72
2023-05-12T17:20:06.126Z,20.52
2023-05-12T17:25:02.949Z,20.48
2023-05-12T17:29:59.808Z,20.37
2023-05-12T17:34:59.144Z,20.32
2023-05-12T17:39:56.222Z,20.33
2023-05-12T17:44:55.077Z,20.26
2023-05-12T17:49:52.216Z,20.19
2023-05-12T17:54:49.429Z,20.02
2023-05-12T17:59:46.344Z,20.08
2023-05-12T18:04:42.938Z,19.89
2023-05-12T18:09:39.611Z,19.93
2023-05-12T18:14:36.449Z,19.72
2023-05-12T18:19:33.389Z,19.65
2023-05-12T18:24:30.079Z,19.56
2023-05-12T18:29:26.905Z,19.43
2023-05-12T18:34:24.331Z,19.34
2023-05-12T18:39:21.072Z,19.16
2023-05-12T18:44:17.621Z,19.05
2023-05-12T18:49:14.307Z,19.09
2023-05-12T18:54:11.230Z,18.86
2023-05-12T18:59:08.117Z,18.74
2023-05-12T19:04:08.028Z,18.59
2023-05-12T19:09:05.109Z,18.62
2023-05-12T19:14:01.845Z,18.42
2023-05-12T19:19:02.879Z,18.30
2023-05-12T19:24:03.622Z,18.19
2023-05-12T19:29:06.911Z,18.05
2023-05-12T19:34:03.679Z,17.90
2023-05-12T19:39:00.535Z,17.75
2023-05-12T19:43:58.126Z,17.66
2023-05-12T19:48:54.766Z,17.59
2023-05-12T19:53:51.469Z,17.47
2023-05-12T19:58:48.207Z,17.28
2023-05-12T20:03:51.271Z,17.24
2023-05-12T20:08:49.189Z,17.07
2023-05-12T20:13:45.874Z,17.01
2023-05-12T20:18:42.799Z,16.88
2023-05-12T20:23:39.545Z,16.79
2023-05-12T20:28:36.720Z,16.82
2023-05-12T20:33:33.411Z,16.75
2023-05-12T20:38:30.051Z,16.59
2023-05-12T20:43:31.512Z,16.68
2023-05-12T20:48:28.129Z,16.52
2023-05-12T20:53:25.029Z,16.41
2023-05-12T20:58:21.628Z,16.39
2023-05-12T21:03:18.297Z,16.39
2023-05-12T21:08:15.706Z,16.22
2023-05-12T21:13:12.346Z,16.26
2023-05-12T21:18:09.003Z,16.10
2023-05-12T21:23:08.405Z,16.06
2023-05-12T21:28:08.350Z,16.02
2023-05-12T21:33:08.015Z,15.99
2023-05-12T21:38:05.973Z,15.89
2023-05-12T21:43:02.731Z,15.80
2023-05-12T21:48:02.183Z,15.91
2023-05-12T21:52:58.836Z,15.72
2023-05-12T21:57:55.475Z,15.64
2023-05-12T22:02:52.375Z,15.59
2023-05-12T22:07:49.153Z,15.55
2023-05-12T22:12:46.587Z,15.57
2023-05-12T22:17:43.297Z,15.49
2023-05-12T22:22:40.061Z,15.32
2023-05-12T22:27:39.536Z,15.21
2023-05-12T22:32:36.467Z,15.14
2023-05-12T22:37:33.222Z,15.04
2023-05-12T22:42:29.867Z,15.08
2023-05-12T22:47:26.558Z,14.98
2023-05-12T22:52:23.283Z,14.91
2023-05-12T22:57:22.779Z,14.85
2023-05-12T23:02:19.472Z,14.80
2023-05-12T23:07:16.114Z,14.80
2023-05-12T23:12:12.789Z,14.72
2023-05-12T23:17:12.361Z,14.62
2023-05-12T23:22:11.854Z,14.62
2023-05-12T23:27:08.577Z,14.55
2023-05-12T23:32:08.145Z,14.62
2023-05-12T23:37:06.920Z,14.52
2023-05-12T23:42:03.888Z,14.50
2023-05-12T23:47:00.858Z,14.44
2023-05-12T23:51:57.305Z,14.43
2023-05-12T23:56:53.784Z,14.32
